createdAt,value
2023-02-25T00:00:31.842Z,9.55
2023-02-25T00:02:59.082Z,9.35
2023-02-25T00:05:26.240Z,6.25
2023-02-25T00:07:54.091Z,11.15
2023-02-25T00:10:20.972Z,5.55
2023-02-25T00:12:47.542Z,7.40
2023-02-25T00:15:14.127Z,10.02
2023-02-25T00:17:40.767Z,5.35
2023-02-25T00:20:09.801Z,9.45
2023-02-25T00:22:36.636Z,8.95
2023-02-25T00:25:03.294Z,7.25
2023-02-25T00:27:29.993Z,4.90
2023-02-25T00:29:56.573Z,5.68
2023-02-25T00:32:23.599Z,6.75
2023-02-25T00:34:51.900Z,4.13
2023-02-25T00:37:18.594Z,4.50
2023-02-25T00:39:45.393Z,2.38
2023-02-25T00:42:14.483Z,3.90
2023-02-25T00:44:45.105Z,2.30
2023-02-25T00:47:11.986Z,7.57
2023-02-25T00:49:38.517Z,4.55
2023-02-25T00:52:05.082Z,3.03
2023-02-25T00:54:32.974Z,4.63
2023-02-25T00:56:59.526Z,7.90
2023-02-25T00:59:26.150Z,3.00
2023-02-25T01:01:52.958Z,3.80
2023-02-25T01:04:19.603Z,3.85
2023-02-25T01:06:46.225Z,4.72
2023-02-25T01:09:13.893Z,4.18
2023-02-25T01:11:44.112Z,4.25
2023-02-25T01:14:16.976Z,8.80
2023-02-25T01:16:45.051Z,5.15
2023-02-25T01:19:21.526Z,4.47
2023-02-25T01:21:51.081Z,5.82
2023-02-25T01:24:20.808Z,5.43
2023-02-25T01:26:49.534Z,5.55
2023-02-25T01:29:18.969Z,5.70
2023-02-25T01:31:45.913Z,6.38
2023-02-25T01:34:18.014Z,6.10
2023-02-25T01:36:45.512Z,5.18
2023-02-25T01:39:14.114Z,9.52
2023-02-25T01:41:41.185Z,6.40
2023-02-25T01:44:18.289Z,6.80
2023-02-25T01:46:47.452Z,6.45
2023-02-25T01:49:39.204Z,5.97
2023-02-25T01:52:16.557Z,6.30
2023-02-25T01:54:45.167Z,7.45
2023-02-25T01:57:14.037Z,7.28
2023-02-25T01:59:42.763Z,6.65
2023-02-25T02:02:12.013Z,7.05
2023-02-25T02:04:41.101Z,7.60
2023-02-25T02:07:07.886Z,8.50
2023-02-25T02:09:34.648Z,10.82
2023-02-25T02:12:06.675Z,8.05
2023-02-25T02:14:37.043Z,7.93
2023-02-25T02:17:21.937Z,7.20
2023-02-25T02:19:49.624Z,8.00
2023-02-25T02:22:28.105Z,8.35
2023-02-25T02:25:16.763Z,9.82
2023-02-25T02:28:01.242Z,9.52
2023-02-25T02:30:28.271Z,9.70
2023-02-25T02:33:10.049Z,9.85
2023-02-25T02:35:53.106Z,10.73
2023-02-25T02:38:57.846Z,9.98
2023-02-25T02:41:46.856Z,9.02
2023-02-25T02:44:31.325Z,9.65
2023-02-25T02:47:03.426Z,9.95
2023-02-25T02:49:43.330Z,10.35
2023-02-25T02:52:18.184Z,11.00
2023-02-25T02:54:48.842Z,10.50
2023-02-25T02:57:17.022Z,9.90
2023-02-25T02:59:49.975Z,11.98
2023-02-25T03:02:22.635Z,11.77
2023-02-25T03:04:53.171Z,13.57
2023-02-25T03:07:22.862Z,13.43
2023-02-25T03:09:52.843Z,8.93
2023-02-25T03:12:19.806Z,10.45
2023-02-25T03:14:46.393Z,10.88
2023-02-25T03:17:28.644Z,13.20
2023-02-25T03:20:16.483Z,10.15
2023-02-25T03:22:46.662Z,11.50
2023-02-25T03:25:30.681Z,11.10
2023-02-25T03:28:03.066Z,11.05
2023-02-25T03:30:35.799Z,9.18
2023-02-25T03:33:28.061Z,10.18
2023-02-25T03:35:59.388Z,10.05
2023-02-25T03:38:28.933Z,8.65
2023-02-25T03:40:57.576Z,10.50
2023-02-25T03:43:39.233Z,10.40
2023-02-25T03:46:06.492Z,11.00
2023-02-25T03:48:36.678Z,14.15
2023-02-25T03:51:05.643Z,12.50
2023-02-25T03:53:35.281Z,10.73
2023-02-25T03:56:08.367Z,10.90
2023-02-25T03:58:38.341Z,11.73
2023-02-25T04:01:17.277Z,11.25
2023-02-25T04:03:43.982Z,7.90
2023-02-25T04:06:12.722Z,12.07
2023-02-25T04:08:40.031Z,9.98
2023-02-25T04:11:06.781Z,10.63
2023-02-25T04:13:33.295Z,14.32
2023-02-25T04:15:59.902Z,10.60
2023-02-25T04:18:26.543Z,10.75
2023-02-25T04:20:53.238Z,11.85
2023-02-25T04:23:19.842Z,9.05
2023-02-25T04:25:46.429Z,13.00
2023-02-25T04:28:13.093Z,12.18
2023-02-25T04:30:39.704Z,11.65
2023-02-25T04:33:06.262Z,13.82
2023-02-25T04:35:32.990Z,13.70
2023-02-25T04:37:59.506Z,10.30
2023-02-25T04:40:26.164Z,10.60
2023-02-25T04:42:52.784Z,11.10
2023-02-25T04:45:20.431Z,12.98
2023-02-25T04:47:46.978Z,11.45
2023-02-25T04:50:13.568Z,12.40
2023-02-25T04:52:40.087Z,13.43
2023-02-25T04:55:09.638Z,14.52
2023-02-25T04:57:42.152Z,11.65
2023-02-25T05:00:20.623Z,11.90
2023-02-25T05:02:48.175Z,16.67
2023-02-25T05:05:15.220Z,11.88
2023-02-25T05:07:41.903Z,12.60
2023-02-25T05:10:10.618Z,13.73
2023-02-25T05:12:37.609Z,16.40
2023-02-25T05:15:05.430Z,12.15
2023-02-25T05:17:32.908Z,19.27
2023-02-25T05:19:59.884Z,16.45
2023-02-25T05:22:27.351Z,13.73
2023-02-25T05:24:54.013Z,14.15
2023-02-25T05:27:20.606Z,13.25
2023-02-25T05:29:47.170Z,12.52
2023-02-25T05:32:13.992Z,15.90
2023-02-25T05:34:41.441Z,13.30
2023-02-25T05:37:08.039Z,15.70
2023-02-25T05:39:34.562Z,13.02
2023-02-25T05:42:01.081Z,12.27
2023-02-25T05:44:27.618Z,13.80
2023-02-25T05:46:54.312Z,19.00
2023-02-25T05:49:20.939Z,13.63
2023-02-25T05:51:49.164Z,11.90
2023-02-25T05:54:15.813Z,14.93
2023-02-25T05:56:44.229Z,15.32
2023-02-25T05:59:11.988Z,16.20
2023-02-25T06:01:38.920Z,16.13
2023-02-25T06:04:05.558Z,13.25
2023-02-25T06:06:32.873Z,14.50
2023-02-25T06:08:59.775Z,16.35
2023-02-25T06:11:29.199Z,15.93
2023-02-25T06:13:57.269Z,18.95
2023-02-25T06:16:31.760Z,13.13
2023-02-25T06:19:00.956Z,17.25
2023-02-25T06:21:27.815Z,14.00
2023-02-25T06:23:54.641Z,17.13
2023-02-25T06:26:21.499Z,14.05
2023-02-25T06:28:48.289Z,13.85
2023-02-25T06:31:17.431Z,13.70
2023-02-25T06:33:45.337Z,14.18
2023-02-25T06:36:12.796Z,17.33
2023-02-25T06:38:39.467Z,16.75
2023-02-25T06:41:09.067Z,12.27
2023-02-25T06:43:36.423Z,16.88
2023-02-25T06:46:07.784Z,14.40
2023-02-25T06:48:34.773Z,16.40
2023-02-25T06:51:02.785Z,15.85
2023-02-25T06:53:30.428Z,11.38
2023-02-25T06:55:58.714Z,16.27
2023-02-25T06:58:25.286Z,17.35
2023-02-25T07:00:51.830Z,14.65
2023-02-25T07:03:18.442Z,17.83
2023-02-25T07:05:45.012Z,15.90
2023-02-25T07:08:11.684Z,19.63
2023-02-25T07:10:40.394Z,16.33
2023-02-25T07:13:08.427Z,16.20
2023-02-25T07:15:35.952Z,13.63
2023-02-25T07:18:03.584Z,18.05
2023-02-25T07:20:31.026Z,11.85
2023-02-25T07:22:57.683Z,10.65
2023-02-25T07:25:24.442Z,12.02
2023-02-25T07:27:51.047Z,9.10
2023-02-25T07:30:17.819Z,7.88
2023-02-25T07:32:44.532Z,6.22
2023-02-25T07:35:11.640Z,6.85
2023-02-25T07:37:38.858Z,6.32
2023-02-25T07:40:09.911Z,6.75
2023-02-25T07:45:03.436Z,7.13
2023-02-25T07:47:29.982Z,9.18
2023-02-25T07:49:56.710Z,9.00
2023-02-25T07:52:23.322Z,6.13
2023-02-25T07:54:49.831Z,7.05
2023-02-25T07:57:16.467Z,8.70
2023-02-25T07:59:42.987Z,6.63
2023-02-25T08:02:11.494Z,9.23
2023-02-25T08:04:38.188Z,7.38
2023-02-25T08:07:04.754Z,7.30
2023-02-25T08:09:31.318Z,7.25
2023-02-25T08:11:58.090Z,8.95
2023-02-25T08:14:24.728Z,7.10
2023-02-25T08:16:55.013Z,7.78
2023-02-25T08:19:21.553Z,8.75
2023-02-25T08:21:48.353Z,7.45
2023-02-25T08:24:14.968Z,6.63
2023-02-25T08:26:41.568Z,5.95
2023-02-25T08:29:08.118Z,5.78
2023-02-25T08:31:34.898Z,7.57
2023-02-25T08:34:01.647Z,5.47
2023-02-25T08:36:31.160Z,6.70
2023-02-25T08:38:59.624Z,7.28
2023-02-25T08:41:28.637Z,6.78
2023-02-25T08:43:57.134Z,5.80
2023-02-25T08:46:26.080Z,4.82
2023-02-25T08:48:53.793Z,8.40
2023-02-25T08:51:22.901Z,5.07
2023-02-25T08:53:50.539Z,5.80
2023-02-25T08:56:17.331Z,7.53
2023-02-25T08:58:44.268Z,5.53
2023-02-25T09:01:13.642Z,7.03
2023-02-25T09:03:50.958Z,8.82
2023-02-25T09:06:22.381Z,11.88
2023-02-25T09:08:49.841Z,9.75
2023-02-25T09:11:16.741Z,11.35
2023-02-25T09:13:43.720Z,13.00
2023-02-25T09:16:10.711Z,11.32
2023-02-25T09:18:37.546Z,9.63
2023-02-25T09:21:04.454Z,21.85
2023-02-25T09:23:31.089Z,13.73
2023-02-25T09:26:01.517Z,11.98
2023-02-25T09:28:28.032Z,15.77
2023-02-25T09:30:56.829Z,12.93
2023-02-25T09:33:24.410Z,11.18
2023-02-25T09:35:51.020Z,14.75
2023-02-25T09:38:17.582Z,12.45
2023-02-25T09:40:48.782Z,16.90
2023-02-25T09:43:26.739Z,17.33
2023-02-25T09:45:58.543Z,13.40
2023-02-25T09:48:32.812Z,11.90
2023-02-25T09:51:18.165Z,13.85
2023-02-25T09:53:57.879Z,14.35
2023-02-25T09:56:27.311Z,14.52
2023-02-25T09:58:59.007Z,13.05
2023-02-25T10:01:34.143Z,13.23
2023-02-25T10:04:22.159Z,13.88
2023-02-25T10:06:51.164Z,11.55
2023-02-25T10:09:28.582Z,13.25
2023-02-25T10:12:13.183Z,10.57
2023-02-25T10:14:48.679Z,15.75
2023-02-25T10:17:24.087Z,13.52
2023-02-25T10:20:31.871Z,14.65
2023-02-25T10:23:17.521Z,10.88
2023-02-25T10:26:02.995Z,11.27
2023-02-25T10:28:32.337Z,11.05
2023-02-25T10:31:02.232Z,10.27
2023-02-25T10:33:34.631Z,14.77
2023-02-25T10:36:14.531Z,11.13
2023-02-25T10:38:46.981Z,10.70
2023-02-25T10:41:14.390Z,15.10
2023-02-25T10:43:42.032Z,11.63
2023-02-25T10:46:15.678Z,13.35
2023-02-25T10:48:48.060Z,12.25
2023-02-25T10:51:16.196Z,13.70
2023-02-25T10:53:57.972Z,10.68
2023-02-25T10:56:28.444Z,13.07
2023-02-25T10:59:00.841Z,12.43
2023-02-25T11:01:43.797Z,12.82
2023-02-25T11:04:13.436Z,11.55
2023-02-25T11:06:43.280Z,11.65
2023-02-25T11:09:18.810Z,10.40
2023-02-25T11:12:09.926Z,12.05
2023-02-25T11:14:38.453Z,10.93
2023-02-25T11:17:13.644Z,13.05
2023-02-25T11:19:47.495Z,11.32
2023-02-25T11:22:20.793Z,12.00
2023-02-25T11:24:59.361Z,11.18
2023-02-25T11:27:40.647Z,11.40
2023-02-25T11:30:07.486Z,14.23
2023-02-25T11:32:34.655Z,10.88
2023-02-25T11:35:10.134Z,14.45
2023-02-25T11:37:43.278Z,11.57
2023-02-25T11:40:30.481Z,12.13
2023-02-25T11:43:03.245Z,10.57
2023-02-25T11:45:33.401Z,10.13
2023-02-25T11:48:02.401Z,11.27
2023-02-25T11:50:40.561Z,9.75
2023-02-25T11:53:40.224Z,11.30
2023-02-25T11:56:14.655Z,13.23
2023-02-25T11:58:59.168Z,11.98
2023-02-25T12:01:47.782Z,18.00
2023-02-25T12:04:26.322Z,18.23
2023-02-25T12:07:17.768Z,17.77
2023-02-25T12:10:02.958Z,12.45
2023-02-25T12:12:37.801Z,13.85
2023-02-25T12:15:23.741Z,10.90
2023-02-25T12:18:16.750Z,13.98
2023-02-25T12:20:52.392Z,15.40
2023-02-25T12:23:43.842Z,9.27
2023-02-25T12:26:14.083Z,7.85
2023-02-25T12:29:00.316Z,12.13
2023-02-25T12:31:39.169Z,11.07
2023-02-25T12:34:35.140Z,11.40
2023-02-25T12:37:27.828Z,7.85
2023-02-25T12:40:06.399Z,7.45
2023-02-25T12:42:45.556Z,8.63
2023-02-25T12:45:39.265Z,10.10
2023-02-25T12:48:30.643Z,14.00
2023-02-25T12:51:15.397Z,8.88
2023-02-25T12:54:01.906Z,8.82
2023-02-25T12:56:55.132Z,13.55
2023-02-25T12:59:49.338Z,10.23
2023-02-25T13:02:50.277Z,13.50
2023-02-25T13:05:37.211Z,10.75
2023-02-25T13:08:03.673Z,8.68
2023-02-25T13:10:39.945Z,13.88
2023-02-25T13:13:46.199Z,12.57
2023-02-25T13:16:33.687Z,9.90
2023-02-25T13:19:34.062Z,8.88
2023-02-25T13:22:13.007Z,9.85
2023-02-25T13:24:53.892Z,10.65
2023-02-25T13:27:55.007Z,7.25
2023-02-25T13:30:34.466Z,9.70
2023-02-25T13:33:25.768Z,7.68
2023-02-25T13:38:40.069Z,9.30
2023-02-25T13:41:48.463Z,8.82
2023-02-25T13:44:39.398Z,5.82
2023-02-25T13:47:17.931Z,7.50
2023-02-25T13:50:24.598Z,7.93
2023-02-25T13:53:20.364Z,7.10
2023-02-25T13:56:19.546Z,6.35
2023-02-25T13:59:07.248Z,8.07
2023-02-25T14:01:55.752Z,9.35
2023-02-25T14:05:16.260Z,5.25
2023-02-25T14:08:10.116Z,6.72
2023-02-25T14:10:46.886Z,8.00
2023-02-25T14:13:25.006Z,10.07
2023-02-25T14:16:18.399Z,6.25
2023-02-25T14:18:57.267Z,6.85
2023-02-25T14:22:05.529Z,7.60
2023-02-25T14:24:40.565Z,7.90
2023-02-25T14:27:41.199Z,11.85
2023-02-25T14:30:53.840Z,8.07
2023-02-25T14:33:46.482Z,10.07
2023-02-25T14:36:34.171Z,7.00
2023-02-25T14:39:15.850Z,18.60
2023-02-25T14:42:06.789Z,7.28
2023-02-25T14:44:39.535Z,7.07
2023-02-25T14:47:14.681Z,6.07
2023-02-25T14:49:56.548Z,8.73
2023-02-25T14:52:47.269Z,5.57
2023-02-25T14:55:45.984Z,10.30
2023-02-25T14:58:50.704Z,6.28
2023-02-25T15:01:39.176Z,7.90
2023-02-25T15:04:21.828Z,5.38
2023-02-25T15:07:07.460Z,5.95
2023-02-25T15:10:01.700Z,7.20
2023-02-25T15:12:46.899Z,6.25
2023-02-25T15:15:41.099Z,6.82
2023-02-25T15:18:19.587Z,9.15
2023-02-25T15:20:46.701Z,5.45
2023-02-25T15:23:19.560Z,5.78
2023-02-25T15:26:11.561Z,8.02
2023-02-25T15:28:43.774Z,8.25
2023-02-25T15:31:28.694Z,7.28
2023-02-25T15:34:22.332Z,9.05
2023-02-25T15:36:51.771Z,6.70
2023-02-25T15:39:44.083Z,6.30
2023-02-25T15:42:13.904Z,5.60
2023-02-25T15:44:45.660Z,9.23
2023-02-25T15:47:21.466Z,7.05
2023-02-25T15:49:49.795Z,6.88
2023-02-25T15:53:01.605Z,9.65
2023-02-25T15:55:35.432Z,7.45
2023-02-25T15:58:02.475Z,5.32
2023-02-25T16:00:50.192Z,7.53
2023-02-25T16:03:43.401Z,5.80
2023-02-25T16:06:40.288Z,14.40
2023-02-25T16:09:11.855Z,7.50
2023-02-25T16:11:44.865Z,6.78
2023-02-25T16:14:31.365Z,6.00
2023-02-25T16:17:17.780Z,9.50
2023-02-25T16:19:50.339Z,4.15
2023-02-25T16:22:23.979Z,7.70
2023-02-25T16:24:56.124Z,6.13
2023-02-25T16:27:33.229Z,6.35
2023-02-25T16:30:12.581Z,11.98
2023-02-25T16:32:54.746Z,7.68
2023-02-25T16:35:44.522Z,6.97
2023-02-25T16:38:32.418Z,7.80
2023-02-25T16:41:00.307Z,9.27
2023-02-25T16:43:30.025Z,6.47
2023-02-25T16:46:03.265Z,8.07
2023-02-25T16:48:34.620Z,6.00
2023-02-25T16:51:12.755Z,8.25
2023-02-25T16:53:45.444Z,5.75
2023-02-25T16:56:19.874Z,6.30
2023-02-25T16:59:21.553Z,8.43
2023-02-25T17:01:57.364Z,6.15
2023-02-25T17:04:36.230Z,8.35
2023-02-25T17:07:07.724Z,7.53
2023-02-25T17:09:35.396Z,11.27
2023-02-25T17:12:03.520Z,9.60
2023-02-25T17:14:31.075Z,9.55
2023-02-25T17:16:58.341Z,8.40
2023-02-25T17:19:25.379Z,6.40
2023-02-25T17:21:58.522Z,10.98
2023-02-25T17:24:30.934Z,4.97
2023-02-25T17:26:57.847Z,3.38
2023-02-25T17:29:34.637Z,5.93
2023-02-25T17:32:13.426Z,4.53
2023-02-25T17:34:41.283Z,3.80
2023-02-25T17:37:12.148Z,5.35
2023-02-25T17:39:40.146Z,4.80
2023-02-25T17:42:25.756Z,4.00
2023-02-25T17:44:52.338Z,6.40
2023-02-25T17:47:23.027Z,4.03
2023-02-25T17:49:50.843Z,6.07
2023-02-25T17:52:20.387Z,3.58
2023-02-25T17:54:53.538Z,7.95
2023-02-25T17:57:22.745Z,5.47
2023-02-25T17:59:56.701Z,6.80
2023-02-25T18:02:39.843Z,6.15
2023-02-25T18:05:12.203Z,5.65
2023-02-25T18:07:43.242Z,6.70
2023-02-25T18:12:55.324Z,6.82
2023-02-25T18:15:31.341Z,6.40
2023-02-25T18:18:01.308Z,4.25
2023-02-25T18:20:36.513Z,5.57
2023-02-25T18:23:07.175Z,3.17
2023-02-25T18:25:41.161Z,4.25
2023-02-25T18:28:14.526Z,3.40
2023-02-25T18:30:43.828Z,6.07
2023-02-25T18:33:11.459Z,3.47
2023-02-25T18:35:41.080Z,5.47
2023-02-25T18:38:15.567Z,4.68
2023-02-25T18:40:42.179Z,6.13
2023-02-25T18:43:19.518Z,5.00
2023-02-25T18:45:46.458Z,4.00
2023-02-25T18:48:13.499Z,7.20
2023-02-25T18:50:44.315Z,8.30
2023-02-25T18:53:16.762Z,3.17
2023-02-25T18:55:43.367Z,8.10
2023-02-25T18:58:14.559Z,6.13
2023-02-25T19:00:42.352Z,5.32
2023-02-25T19:03:14.247Z,9.25
2023-02-25T19:05:40.888Z,7.45
2023-02-25T19:08:13.132Z,4.40
2023-02-25T19:10:39.966Z,4.30
2023-02-25T19:13:14.533Z,4.57
2023-02-25T19:15:41.233Z,5.15
2023-02-25T19:18:12.804Z,4.85
2023-02-25T19:20:39.459Z,3.42
2023-02-25T19:23:06.058Z,4.97
2023-02-25T19:25:36.143Z,3.55
2023-02-25T19:28:04.351Z,4.53
2023-02-25T19:30:34.864Z,4.78
2023-02-25T19:33:04.895Z,5.82
2023-02-25T19:35:38.618Z,3.70
2023-02-25T19:38:06.453Z,4.13
2023-02-25T19:40:33.409Z,7.40
2023-02-25T19:43:00.151Z,5.93
2023-02-25T19:45:27.153Z,8.13
2023-02-25T19:47:54.848Z,5.00
2023-02-25T19:50:24.665Z,3.78
2023-02-25T19:52:53.040Z,5.32
2023-02-25T19:55:20.137Z,5.10
2023-02-25T19:57:46.777Z,4.65
2023-02-25T20:00:18.935Z,5.95
2023-02-25T20:02:45.500Z,5.85
2023-02-25T20:05:13.019Z,4.60
2023-02-25T20:07:39.683Z,6.65
2023-02-25T20:10:10.788Z,5.22
2023-02-25T20:15:06.836Z,5.05
2023-02-25T20:17:36.462Z,14.52
2023-02-25T20:20:04.067Z,4.97
2023-02-25T20:22:30.634Z,4.78
2023-02-25T20:24:57.170Z,6.60
2023-02-25T20:27:24.061Z,6.18
2023-02-25T20:29:50.646Z,6.78
2023-02-25T20:32:17.318Z,9.25
2023-02-25T20:34:44.095Z,9.07
2023-02-25T20:37:21.006Z,6.00
2023-02-25T20:39:53.328Z,7.88
2023-02-25T20:42:25.221Z,7.07
2023-02-25T20:44:52.868Z,6.78
2023-02-25T20:47:28.410Z,6.68
2023-02-25T20:49:56.032Z,7.38
2023-02-25T20:52:24.257Z,7.88
2023-02-25T20:54:50.834Z,5.10
2023-02-25T20:57:19.682Z,7.63
2023-02-25T20:59:48.085Z,6.00
2023-02-25T21:02:15.818Z,5.97
2023-02-25T21:04:43.657Z,6.47
2023-02-25T21:07:10.718Z,11.77
2023-02-25T21:09:37.327Z,4.80
2023-02-25T21:12:04.119Z,8.52
2023-02-25T21:14:30.840Z,4.95
2023-02-25T21:16:57.506Z,8.07
2023-02-25T21:19:26.324Z,7.75
2023-02-25T21:21:52.911Z,5.60
2023-02-25T21:24:20.091Z,6.15
2023-02-25T21:26:46.804Z,8.77
2023-02-25T21:29:14.085Z,4.03
2023-02-25T21:31:40.872Z,7.30
2023-02-25T21:34:09.047Z,11.13
2023-02-25T21:36:35.826Z,7.05
2023-02-25T21:39:03.419Z,10.23
2023-02-25T21:41:30.107Z,11.30
2023-02-25T21:43:57.132Z,12.38
2023-02-25T21:46:24.577Z,10.00
2023-02-25T21:48:53.094Z,7.30
2023-02-25T21:51:22.221Z,8.15
2023-02-25T21:53:52.824Z,6.75
2023-02-25T21:56:19.426Z,8.65
2023-02-25T21:58:46.081Z,7.78
2023-02-25T22:01:18.716Z,8.85
2023-02-25T22:03:46.137Z,12.43
2023-02-25T22:06:12.972Z,12.60
2023-02-25T22:08:40.804Z,8.32
2023-02-25T22:11:19.304Z,12.50
2023-02-25T22:13:46.053Z,11.00
2023-02-25T22:16:14.603Z,11.98
2023-02-25T22:18:41.784Z,8.25
2023-02-25T22:21:15.642Z,8.45
2023-02-25T22:23:45.597Z,14.43
2023-02-25T22:26:15.332Z,13.95
2023-02-25T22:28:43.185Z,12.32
2023-02-25T22:31:12.915Z,10.65
2023-02-25T22:33:39.706Z,8.40
2023-02-25T22:36:07.532Z,14.30
2023-02-25T22:38:36.925Z,7.72
2023-02-25T22:41:05.130Z,10.80
2023-02-25T22:43:32.869Z,11.82
2023-02-25T22:46:11.257Z,6.65
2023-02-25T22:48:39.792Z,9.00
2023-02-25T22:51:09.289Z,9.23
2023-02-25T22:53:40.288Z,8.10
2023-02-25T22:56:09.738Z,7.20
2023-02-25T22:58:38.742Z,5.20
2023-02-25T23:01:06.258Z,5.82
2023-02-25T23:03:32.872Z,7.82
2023-02-25T23:06:00.111Z,6.03
2023-02-25T23:08:27.211Z,6.32
2023-02-25T23:10:54.417Z,10.02
2023-02-25T23:13:21.008Z,14.23
2023-02-25T23:15:47.827Z,6.88
2023-02-25T23:18:15.694Z,4.85
2023-02-25T23:20:42.786Z,6.53
2023-02-25T23:23:09.514Z,4.22
2023-02-25T23:25:39.688Z,8.85
2023-02-25T23:28:08.389Z,7.80
2023-02-25T23:30:38.843Z,7.72
2023-02-25T23:33:06.267Z,5.75
2023-02-25T23:35:33.608Z,6.97
2023-02-25T23:38:00.749Z,4.97
2023-02-25T23:40:28.754Z,3.83
2023-02-25T23:42:55.556Z,4.85
2023-02-25T23:45:22.208Z,5.05
2023-02-25T23:47:48.747Z,5.72
2023-02-25T23:50:16.677Z,3.55
2023-02-25T23:52:44.985Z,4.63
2023-02-25T23:55:13.054Z,3.47
2023-02-25T23:57:40.218Z,4.13
